Spencerville, Maryland
Current Conditions -  °F | °C
As of 10:25 PM on Monday 20 Oct 2014 (Local Time) from KCGS Reporting Station
Overcast Overcast  
Wind Chill: 55°   Ceiling: 12000
Heat Index: 55°   Visibility: 10mi
Dew Point: 46°   Wind: 0mph
Humidity: 72%   Direction: NA
Pressure: 29.96"   Gusts: NA
Location:  39.11°N, 76.98°W
Report Text: KCGS 210225Z AUTO 00000KT 10SM SCT080 OVC120 13/08 A2996 RMK AO1
Loading
Personal Weather Stations






























Interactive Weather Map
Tropical Storm Tracking
New forecast layout! Learn more

10-Day Weather Forecast

Advertisements
Track Severe Weather on mobile